Time;durP1;ratioP1;P1;durP2;ratioP2;P2;SDS_P1;SDS_P2;PMS_P1;PMS_P2;Temp;Humidity;BMP_temperature;BMP_pressure;BME280_temperature;BME280_humidity;BME280_pressure;Samples;Min_cycle;Max_cycle;Signal;HPM_P1;HPM_P2
2022/03/13 00:02:02;;;;;;;9.53;7.53;;;11.70;99.90;;;;;;4960173;28;20300;-54
2022/03/13 00:04:30;;;;;;;10.03;6.87;;;11.70;99.90;;;;;;4958615;28;20214;-54
2022/03/13 00:06:57;;;;;;;9.07;6.87;;;11.80;99.90;;;;;;4960588;28;20228;-54
2022/03/13 00:09:25;;;;;;;9.77;6.83;;;11.80;99.90;;;;;;4957436;28;20208;-54
2022/03/13 00:11:53;;;;;;;8.63;6.30;;;11.70;99.90;;;;;;4960735;28;20260;-54
2022/03/13 00:14:24;;;;;;;8.57;6.40;;;11.80;99.90;;;;;;4953467;28;20519;-54
2022/03/13 00:16:52;;;;;;;9.07;6.30;;;11.70;99.90;;;;;;4954757;28;20772;-54
2022/03/13 00:19:20;;;;;;;9.27;5.80;;;11.60;99.90;;;;;;4953949;28;20278;-55
2022/03/13 00:21:52;;;;;;;8.87;5.97;;;11.60;99.90;;;;;;4957362;28;20281;-54
2022/03/13 00:24:20;;;;;;;7.00;5.20;;;11.60;99.90;;;;;;4958251;28;20284;-55
2022/03/13 00:26:49;;;;;;;7.47;5.50;;;11.60;99.90;;;;;;4957554;28;20627;-55
2022/03/13 00:29:16;;;;;;;7.63;6.07;;;11.60;99.90;;;;;;4957491;28;20329;-55
2022/03/13 00:31:43;;;;;;;9.33;5.83;;;11.60;99.90;;;;;;4957955;28;20236;-55
2022/03/13 00:34:12;;;;;;;7.40;5.13;;;11.60;99.90;;;;;;4955921;28;20217;-55
2022/03/13 00:36:40;;;;;;;7.10;5.37;;;11.70;99.90;;;;;;4953544;28;20216;-54
2022/03/13 00:39:08;;;;;;;9.80;5.43;;;11.70;99.90;;;;;;4959872;28;20202;-55
2022/03/13 00:41:36;;;;;;;7.70;5.10;;;11.70;99.90;;;;;;4957152;28;20227;-55
2022/03/13 00:44:04;;;;;;;6.87;5.07;;;11.60;99.90;;;;;;4956858;28;20285;-55
2022/03/13 00:46:32;;;;;;;6.80;5.30;;;11.60;99.90;;;;;;4957793;28;20396;-54
2022/03/13 00:48:59;;;;;;;6.83;5.27;;;11.70;99.90;;;;;;4955711;28;21680;-56
2022/03/13 00:51:26;;;;;;;6.43;5.00;;;11.60;99.90;;;;;;4958388;28;20205;-55
2022/03/13 00:53:52;;;;;;;7.70;4.73;;;11.70;99.90;;;;;;4955473;28;20670;-55
2022/03/13 00:56:19;;;;;;;6.20;4.83;;;11.60;99.90;;;;;;4959850;28;20318;-56
2022/03/13 00:58:46;;;;;;;5.43;4.17;;;11.60;99.90;;;;;;4957365;28;20209;-55
2022/03/13 01:01:13;;;;;;;5.40;3.93;;;11.70;99.90;;;;;;4955260;28;20218;-55
2022/03/13 01:03:41;;;;;;;9.83;4.50;;;11.70;99.90;;;;;;4958275;28;20280;-55
2022/03/13 01:06:08;;;;;;;7.63;4.90;;;11.70;99.90;;;;;;4959087;28;20292;-55
2022/03/13 01:08:36;;;;;;;6.57;4.57;;;11.80;99.90;;;;;;4957767;28;20534;-54
2022/03/13 01:11:04;;;;;;;7.07;4.70;;;11.70;99.90;;;;;;4959454;28;20271;-53
2022/03/13 01:13:31;;;;;;;6.87;4.53;;;11.80;99.90;;;;;;4957506;28;20209;-55
2022/03/13 01:16:27;;;;;;;5.47;4.10;;;11.70;99.90;;;;;;4954790;28;21208;-54
2022/03/13 01:18:59;;;;;;;4.83;4.03;;;11.70;99.90;;;;;;4954436;28;20239;-54
2022/03/13 01:21:27;;;;;;;5.53;3.80;;;11.70;99.90;;;;;;4956297;28;20351;-54
2022/03/13 01:24:00;;;;;;;6.07;3.87;;;11.70;99.90;;;;;;4957409;28;20245;-54
2022/03/13 01:26:28;;;;;;;6.03;3.97;;;11.80;99.90;;;;;;4955749;28;21043;-53
2022/03/13 01:28:58;;;;;;;8.23;4.77;;;11.80;99.90;;;;;;4957040;28;20205;-54
2022/03/13 01:31:27;;;;;;;6.03;5.27;;;11.80;99.90;;;;;;4954230;28;20326;-54
2022/03/13 01:33:56;;;;;;;7.77;6.23;;;11.70;99.90;;;;;;4955918;28;20216;-54
2022/03/13 01:36:24;;;;;;;9.53;6.03;;;11.60;99.90;;;;;;4957169;28;20685;-55
2022/03/13 01:38:54;;;;;;;8.10;6.00;;;11.50;99.90;;;;;;4957988;28;20237;-55
2022/03/13 01:41:22;;;;;;;10.10;7.10;;;11.60;99.90;;;;;;4954375;28;20767;-54
2022/03/13 01:43:49;;;;;;;8.53;6.40;;;11.50;99.90;;;;;;4956179;28;20206;-53
2022/03/13 01:46:17;;;;;;;7.30;6.10;;;11.40;99.90;;;;;;4955010;28;20305;-54
2022/03/13 01:48:56;;;;;;;8.87;6.17;;;11.40;99.90;;;;;;4967806;28;20208;-54
2022/03/13 01:51:24;;;;;;;8.37;6.80;;;11.40;99.90;;;;;;4956812;28;20231;-53
2022/03/13 01:54:01;;;;;;;10.53;6.80;;;11.30;99.90;;;;;;4955402;28;20309;-53
2022/03/13 01:56:31;;;;;;;11.60;6.13;;;11.20;99.90;;;;;;4968548;28;20324;-53
2022/03/13 01:58:58;;;;;;;9.43;6.40;;;11.10;99.90;;;;;;4956420;28;20252;-56
2022/03/13 02:01:27;;;;;;;10.63;7.33;;;11.20;99.90;;;;;;4953406;28;20731;-55
2022/03/13 02:03:55;;;;;;;9.77;6.77;;;11.10;99.90;;;;;;4957679;28;20210;-55
2022/03/13 02:06:26;;;;;;;8.00;6.37;;;11.10;99.90;;;;;;4957992;28;20376;-55
2022/03/13 02:08:54;;;;;;;8.10;6.37;;;11.10;99.90;;;;;;4956986;28;20205;-55
2022/03/13 02:11:24;;;;;;;9.30;6.50;;;11.00;99.90;;;;;;4958431;28;20598;-56
2022/03/13 02:13:55;;;;;;;10.00;7.03;;;11.00;99.90;;;;;;4957555;28;20204;-55
2022/03/13 02:16:24;;;;;;;11.07;6.00;;;11.00;99.90;;;;;;4956729;28;20245;-54
2022/03/13 02:18:53;;;;;;;11.00;6.67;;;11.00;99.90;;;;;;4957573;28;20246;-55
2022/03/13 02:21:25;;;;;;;9.83;6.67;;;11.00;99.90;;;;;;4958797;28;20673;-55
2022/03/13 02:23:55;;;;;;;13.67;6.73;;;11.00;99.90;;;;;;4955716;28;20228;-54
2022/03/13 02:26:22;;;;;;;12.67;8.50;;;11.00;99.90;;;;;;4957439;28;20212;-54
2022/03/13 02:28:54;;;;;;;11.00;7.80;;;10.80;99.90;;;;;;4958091;28;20321;-55
2022/03/13 02:31:32;;;;;;;8.50;7.43;;;10.80;99.90;;;;;;4956487;28;20610;-54
2022/03/13 02:33:59;;;;;;;12.57;7.70;;;10.80;99.90;;;;;;4954840;28;20324;-54
2022/03/13 02:36:52;;;;;;;9.67;7.07;;;10.80;99.90;;;;;;4956138;28;20221;-55
2022/03/13 02:39:19;;;;;;;9.70;6.77;;;10.80;99.90;;;;;;4960265;28;20311;-54
2022/03/13 02:41:46;;;;;;;8.30;6.33;;;10.80;99.90;;;;;;4959521;28;20681;-55
2022/03/13 02:44:15;;;;;;;8.27;5.87;;;10.80;99.90;;;;;;4963852;28;20236;-54
2022/03/13 02:46:48;;;;;;;8.57;6.50;;;10.80;99.90;;;;;;4977022;28;20246;-54
2022/03/13 02:49:18;;;;;;;8.33;5.97;;;10.70;99.90;;;;;;4964009;28;20204;-54
2022/03/13 02:51:46;;;;;;;7.10;5.17;;;10.70;99.90;;;;;;4964092;28;20225;-55
2022/03/13 02:54:15;;;;;;;8.00;5.90;;;10.60;99.90;;;;;;4964625;28;20517;-55
2022/03/13 02:56:43;;;;;;;7.80;5.33;;;10.50;99.90;;;;;;4962374;28;20311;-54
2022/03/13 02:59:10;;;;;;;12.10;5.47;;;10.50;99.90;;;;;;4962517;28;20673;-54
2022/03/13 03:01:37;;;;;;;6.60;5.43;;;10.60;99.90;;;;;;4962132;28;20674;-53
2022/03/13 03:04:05;;;;;;;7.40;5.63;;;10.60;99.90;;;;;;4961408;28;20214;-56
2022/03/13 03:06:33;;;;;;;6.63;5.37;;;10.60;99.90;;;;;;4960983;28;20282;-55
2022/03/13 03:09:01;;;;;;;8.70;6.10;;;10.50;99.90;;;;;;4960236;28;20300;-55
2022/03/13 03:11:28;;;;;;;7.33;5.70;;;10.60;99.90;;;;;;4962773;28;20311;-54
2022/03/13 03:13:55;;;;;;;8.13;6.30;;;10.70;99.90;;;;;;4960066;28;20673;-54
2022/03/13 03:16:22;;;;;;;7.03;5.87;;;10.60;99.90;;;;;;4961780;28;20217;-55
2022/03/13 03:18:49;;;;;;;8.50;5.90;;;10.70;99.90;;;;;;4977439;28;20597;-55
2022/03/13 03:21:16;;;;;;;7.87;6.07;;;10.70;99.90;;;;;;4964004;28;20291;-55
2022/03/13 03:23:42;;;;;;;10.17;6.43;;;10.70;99.90;;;;;;4976817;28;20235;-54
2022/03/13 03:26:09;;;;;;;8.93;6.23;;;10.60;99.90;;;;;;4963874;28;20358;-55
2022/03/13 03:28:36;;;;;;;9.27;6.20;;;10.70;99.90;;;;;;4961399;28;20235;-54
2022/03/13 03:31:03;;;;;;;9.47;6.80;;;10.70;99.90;;;;;;4961283;28;21889;-53
2022/03/13 03:33:30;;;;;;;13.43;7.17;;;10.60;99.90;;;;;;4962067;28;20294;-54
2022/03/13 03:35:56;;;;;;;12.40;6.73;;;10.60;99.90;;;;;;4963417;28;20563;-54
2022/03/13 03:38:24;;;;;;;8.47;6.93;;;10.60;99.90;;;;;;4961788;28;20268;-54
2022/03/13 03:40:51;;;;;;;11.70;7.17;;;10.50;99.90;;;;;;4961689;28;20320;-54
2022/03/13 03:43:18;;;;;;;12.47;7.70;;;10.60;99.90;;;;;;4962890;28;20292;-57
2022/03/13 03:45:45;;;;;;;11.00;8.07;;;10.60;99.90;;;;;;4961469;28;20307;-55
2022/03/13 03:48:12;;;;;;;9.97;7.60;;;10.60;99.90;;;;;;4960449;28;20644;-55
2022/03/13 03:50:39;;;;;;;9.20;7.70;;;10.60;99.90;;;;;;4964863;28;20212;-54
2022/03/13 03:53:06;;;;;;;11.60;7.67;;;10.50;99.90;;;;;;4962150;28;20304;-55
2022/03/13 03:55:32;;;;;;;12.17;7.87;;;10.40;99.90;;;;;;4963091;28;20233;-55
2022/03/13 03:57:59;;;;;;;11.50;8.13;;;10.40;99.90;;;;;;4961294;28;20639;-55
2022/03/13 04:00:26;;;;;;;10.53;7.93;;;10.50;99.90;;;;;;4962907;28;20310;-55
2022/03/13 04:02:54;;;;;;;12.60;8.63;;;10.50;99.90;;;;;;4958754;28;20293;-55
2022/03/13 04:05:23;;;;;;;12.30;8.00;;;10.50;99.90;;;;;;4961857;28;20246;-55
2022/03/13 04:07:50;;;;;;;15.77;9.73;;;10.40;99.90;;;;;;4960432;28;20715;-54
2022/03/13 04:10:16;;;;;;;11.90;9.07;;;10.40;99.90;;;;;;4960448;28;20222;-55
2022/03/13 04:12:43;;;;;;;11.87;8.50;;;10.30;99.90;;;;;;4959855;28;20602;-55
2022/03/13 04:15:10;;;;;;;13.77;9.10;;;10.30;99.90;;;;;;4975824;28;20239;-54
2022/03/13 04:17:37;;;;;;;13.13;8.77;;;10.30;99.90;;;;;;4961271;28;20319;-54
2022/03/13 04:20:06;;;;;;;13.57;10.50;;;10.20;99.90;;;;;;4961154;28;20284;-53
2022/03/13 04:22:34;;;;;;;15.60;9.90;;;10.20;99.90;;;;;;4960013;28;20324;-56
2022/03/13 04:25:00;;;;;;;12.60;10.07;;;10.10;99.90;;;;;;4961265;28;20684;-55
2022/03/13 04:27:28;;;;;;;12.77;9.63;;;10.10;99.90;;;;;;4959517;28;20211;-55
2022/03/13 04:29:54;;;;;;;13.50;9.00;;;10.00;99.90;;;;;;4961335;28;20287;-55
2022/03/13 04:32:23;;;;;;;15.60;9.77;;;10.10;99.90;;;;;;4959421;28;20299;-54
2022/03/13 04:34:50;;;;;;;13.77;10.20;;;10.00;99.90;;;;;;4961166;28;20210;-55
2022/03/13 04:37:18;;;;;;;14.87;10.50;;;10.10;99.90;;;;;;4959755;28;20303;-55
2022/03/13 04:39:46;;;;;;;15.20;10.80;;;10.10;99.90;;;;;;4961054;28;20231;-55
2022/03/13 04:42:13;;;;;;;17.87;10.30;;;10.10;99.90;;;;;;4960749;28;20689;-55
2022/03/13 04:44:40;;;;;;;15.93;11.17;;;10.00;99.90;;;;;;4960855;28;20437;-55
2022/03/13 04:47:07;;;;;;;18.97;11.33;;;10.00;99.90;;;;;;4959522;28;20386;-55
2022/03/13 04:49:34;;;;;;;16.60;10.83;;;9.90;99.90;;;;;;4959341;28;20693;-55
2022/03/13 04:52:00;;;;;;;15.10;10.50;;;9.90;99.90;;;;;;4960027;28;20285;-55
2022/03/13 04:54:27;;;;;;;15.87;11.13;;;9.90;99.90;;;;;;4960221;28;20247;-55
2022/03/13 04:56:54;;;;;;;16.37;11.57;;;9.80;99.90;;;;;;4958401;28;20765;-55
2022/03/13 04:59:21;;;;;;;17.13;11.17;;;9.70;99.90;;;;;;4957597;28;20298;-54
2022/03/13 05:01:47;;;;;;;16.63;11.73;;;9.70;99.90;;;;;;4959062;28;20295;-55
2022/03/13 05:04:14;;;;;;;15.67;11.43;;;9.70;99.90;;;;;;4971484;28;20293;-54
2022/03/13 05:06:45;;;;;;;17.00;12.80;;;9.70;99.90;;;;;;4960119;28;20235;-55
2022/03/13 05:09:12;;;;;;;14.57;11.10;;;9.60;99.90;;;;;;4961696;28;20191;-57
2022/03/13 05:11:39;;;;;;;17.07;12.53;;;9.60;99.90;;;;;;4957668;28;20228;-56
2022/03/13 05:14:05;;;;;;;16.80;11.93;;;9.50;99.90;;;;;;4958224;28;20214;-55
2022/03/13 05:16:32;;;;;;;17.63;12.27;;;9.60;99.90;;;;;;4957318;28;20743;-54
2022/03/13 05:19:00;;;;;;;17.13;12.67;;;9.60;99.90;;;;;;4957416;28;20216;-55
2022/03/13 05:21:27;;;;;;;17.10;12.43;;;9.60;99.90;;;;;;4957670;28;20202;-55
2022/03/13 05:23:54;;;;;;;17.97;12.70;;;9.50;99.90;;;;;;4957230;28;20287;-54
2022/03/13 05:26:21;;;;;;;17.20;12.40;;;9.50;99.90;;;;;;4956793;28;20627;-54
2022/03/13 05:28:48;;;;;;;17.67;13.00;;;9.60;99.90;;;;;;4957857;28;20199;-54
2022/03/13 05:31:15;;;;;;;20.57;13.37;;;9.60;99.90;;;;;;4958294;28;20317;-55
2022/03/13 05:33:42;;;;;;;15.13;11.67;;;9.60;99.90;;;;;;4955146;28;20233;-55
2022/03/13 05:36:09;;;;;;;16.33;11.80;;;9.50;99.90;;;;;;4956143;28;20219;-55
2022/03/13 05:38:37;;;;;;;17.53;11.40;;;9.60;99.90;;;;;;4959082;28;20244;-54
2022/03/13 05:41:06;;;;;;;18.87;12.47;;;9.60;99.90;;;;;;4957018;28;20228;-54
2022/03/13 05:43:34;;;;;;;15.93;12.40;;;9.50;99.90;;;;;;4957777;28;20208;-57
2022/03/13 05:46:00;;;;;;;15.20;11.10;;;9.40;99.90;;;;;;4957501;28;20271;-56
2022/03/13 05:48:30;;;;;;;15.43;10.50;;;9.50;99.90;;;;;;4957073;28;20541;-54
2022/03/13 05:50:57;;;;;;;17.10;11.17;;;9.50;99.90;;;;;;4956972;28;20520;-56
2022/03/13 05:53:24;;;;;;;20.40;11.97;;;9.50;99.90;;;;;;4957050;28;20235;-56
2022/03/13 05:55:51;;;;;;;19.17;11.60;;;9.60;99.90;;;;;;4956497;28;20238;-55
2022/03/13 05:58:19;;;;;;;15.23;11.03;;;9.70;99.90;;;;;;4957406;28;20219;-55
2022/03/13 06:01:04;;;;;;;15.43;11.53;;;9.60;99.90;;;;;;4953217;28;20209;-55
2022/03/13 06:03:32;;;;;;;14.53;11.00;;;9.50;99.90;;;;;;4953678;28;20211;-55
2022/03/13 06:06:01;;;;;;;15.93;10.63;;;9.40;99.90;;;;;;4956915;28;20232;-57
2022/03/13 06:08:28;;;;;;;15.70;10.70;;;9.40;99.90;;;;;;4957216;28;20298;-54
2022/03/13 06:10:54;;;;;;;17.77;11.63;;;9.40;99.90;;;;;;4960884;28;20315;-54
2022/03/13 06:13:22;;;;;;;18.27;11.73;;;9.40;99.90;;;;;;4963965;28;20421;-55
2022/03/13 06:15:49;;;;;;;15.63;10.63;;;9.40;99.90;;;;;;4964807;28;20244;-55
2022/03/13 06:18:16;;;;;;;15.17;10.73;;;9.30;99.90;;;;;;4962875;28;20242;-56
2022/03/13 06:20:43;;;;;;;13.23;10.20;;;9.30;99.90;;;;;;4962083;28;20234;-55
2022/03/13 06:23:12;;;;;;;18.00;10.70;;;9.40;99.90;;;;;;4959832;28;20300;-54
2022/03/13 06:25:40;;;;;;;15.57;10.57;;;9.40;99.90;;;;;;4960858;28;20305;-55
2022/03/13 06:28:14;;;;;;;14.23;10.40;;;9.40;99.90;;;;;;4960832;28;20208;-55
2022/03/13 06:30:41;;;;;;;15.83;11.37;;;9.40;99.90;;;;;;4957210;28;20203;-54
2022/03/13 06:33:08;;;;;;;13.57;10.30;;;9.40;99.90;;;;;;4959044;28;20345;-57
2022/03/13 06:35:35;;;;;;;14.83;10.47;;;9.50;99.90;;;;;;4961427;28;20268;-56
2022/03/13 06:38:02;;;;;;;15.53;10.83;;;9.50;99.90;;;;;;4960400;28;20322;-55
2022/03/13 06:40:29;;;;;;;14.80;10.70;;;9.50;99.90;;;;;;4960192;28;20738;-55
2022/03/13 06:42:58;;;;;;;15.30;11.77;;;9.40;99.90;;;;;;4960468;28;20691;-54
2022/03/13 06:45:25;;;;;;;15.07;10.70;;;9.50;99.90;;;;;;4960921;28;20207;-55
2022/03/13 06:47:52;;;;;;;12.93;9.80;;;9.50;99.90;;;;;;4958750;28;20289;-55
2022/03/13 06:50:23;;;;;;;15.17;10.33;;;9.40;99.90;;;;;;4963566;28;20203;-55
2022/03/13 06:52:53;;;;;;;15.17;10.77;;;9.50;99.90;;;;;;4958481;28;20660;-54
2022/03/13 06:55:21;;;;;;;13.63;9.90;;;9.40;99.90;;;;;;4960204;28;20208;-54
2022/03/13 06:57:49;;;;;;;15.07;10.17;;;9.40;99.90;;;;;;4959501;28;20284;-55
2022/03/13 07:00:17;;;;;;;13.83;10.63;;;9.40;99.90;;;;;;4958745;28;20295;-55
2022/03/13 07:02:54;;;;;;;14.43;10.27;;;9.40;99.90;;;;;;4958700;28;21098;-55
2022/03/13 07:05:23;;;;;;;17.83;10.93;;;9.40;99.90;;;;;;4958871;28;20235;-54
2022/03/13 07:07:54;;;;;;;15.97;10.60;;;9.40;99.90;;;;;;4957895;28;20297;-53
2022/03/13 07:10:21;;;;;;;16.27;10.70;;;9.50;99.90;;;;;;4958536;28;20891;-56
2022/03/13 07:12:48;;;;;;;14.90;10.63;;;9.60;99.90;;;;;;4961484;28;20294;-55
2022/03/13 07:15:18;;;;;;;16.60;9.70;;;9.50;99.90;;;;;;4958642;28;21067;-55
2022/03/13 07:17:45;;;;;;;15.03;10.67;;;9.50;99.90;;;;;;4957261;28;20246;-55
2022/03/13 07:20:13;;;;;;;13.37;9.50;;;9.60;99.90;;;;;;4960918;28;20233;-55
2022/03/13 07:22:42;;;;;;;18.17;11.23;;;9.60;99.90;;;;;;4959492;28;20227;-55
2022/03/13 07:25:09;;;;;;;15.83;10.50;;;9.60;99.90;;;;;;4962395;28;20230;-55
2022/03/13 07:27:37;;;;;;;13.73;10.00;;;9.60;99.90;;;;;;4957784;28;20299;-54
2022/03/13 07:30:06;;;;;;;16.33;9.87;;;9.70;99.90;;;;;;4958827;28;21106;-55
2022/03/13 07:32:34;;;;;;;11.90;9.63;;;9.80;99.90;;;;;;4959435;28;20213;-55
2022/03/13 07:35:01;;;;;;;15.70;9.60;;;9.70;99.90;;;;;;4959023;28;20244;-55
2022/03/13 07:37:28;;;;;;;13.83;10.37;;;9.70;99.90;;;;;;4961085;28;20282;-57
2022/03/13 07:39:55;;;;;;;14.40;10.40;;;9.60;99.90;;;;;;4959257;28;20590;-55
2022/03/13 07:42:22;;;;;;;13.13;9.63;;;9.60;99.90;;;;;;4959048;28;20216;-54
2022/03/13 07:44:48;;;;;;;13.57;10.40;;;9.70;99.90;;;;;;4958388;28;20208;-55
2022/03/13 07:47:15;;;;;;;15.37;10.90;;;9.80;99.90;;;;;;4955863;28;20853;-54
2022/03/13 07:49:42;;;;;;;15.70;11.07;;;9.80;99.90;;;;;;4958675;28;20294;-54
2022/03/13 07:52:09;;;;;;;16.57;10.43;;;9.80;99.90;;;;;;4960166;28;20207;-59
2022/03/13 07:54:35;;;;;;;13.80;10.33;;;9.80;99.90;;;;;;4957066;28;20208;-56
2022/03/13 07:57:03;;;;;;;16.30;10.83;;;9.80;99.90;;;;;;4956679;28;20300;-54
2022/03/13 07:59:29;;;;;;;14.00;9.77;;;9.90;99.90;;;;;;4959485;28;20729;-54
2022/03/13 08:01:56;;;;;;;15.00;10.77;;;10.00;99.90;;;;;;4959127;28;20671;-55
2022/03/13 08:04:24;;;;;;;14.10;10.73;;;10.00;99.90;;;;;;4957031;28;20208;-54
2022/03/13 08:06:51;;;;;;;15.10;11.30;;;10.00;99.90;;;;;;4961089;28;20688;-55
2022/03/13 08:09:18;;;;;;;13.87;10.73;;;10.00;99.90;;;;;;4960089;28;20707;-55
2022/03/13 08:11:45;;;;;;;15.67;10.77;;;10.00;99.90;;;;;;4958552;28;20676;-55
2022/03/13 08:14:12;;;;;;;16.77;10.70;;;10.10;99.90;;;;;;4957533;28;20211;-54
2022/03/13 08:16:39;;;;;;;14.33;10.10;;;10.20;99.90;;;;;;4957399;28;20209;-55
2022/03/13 08:19:06;;;;;;;14.20;10.33;;;10.20;99.90;;;;;;4956547;28;20215;-55
2022/03/13 08:21:33;;;;;;;16.90;10.87;;;10.30;99.90;;;;;;4959338;28;20654;-55
2022/03/13 08:24:00;;;;;;;14.30;10.93;;;10.40;99.90;;;;;;4961386;28;20575;-55
2022/03/13 08:26:27;;;;;;;19.17;11.90;;;10.50;99.90;;;;;;4957134;28;20232;-55
2022/03/13 08:28:54;;;;;;;15.27;10.53;;;10.40;99.90;;;;;;4957382;28;20214;-55
2022/03/13 08:31:21;;;;;;;15.93;10.87;;;10.50;99.90;;;;;;4957610;28;20302;-56
2022/03/13 08:33:49;;;;;;;14.57;10.83;;;10.40;99.90;;;;;;4955663;28;20208;-55
2022/03/13 08:36:16;;;;;;;18.40;11.37;;;10.50;99.90;;;;;;4959772;28;20218;-55
2022/03/13 08:38:43;;;;;;;18.83;10.33;;;10.40;99.90;;;;;;4960101;28;20897;-54
2022/03/13 08:41:11;;;;;;;14.03;11.23;;;10.50;99.90;;;;;;4957749;28;20210;-54
2022/03/13 08:43:37;;;;;;;16.17;11.00;;;10.50;99.90;;;;;;4958004;28;20340;-55
2022/03/13 08:46:05;;;;;;;14.90;11.13;;;10.50;99.90;;;;;;4957561;28;20202;-55
2022/03/13 08:48:34;;;;;;;16.13;10.63;;;10.60;99.90;;;;;;4958904;28;20210;-55
2022/03/13 08:51:01;;;;;;;17.50;10.90;;;10.70;99.90;;;;;;4955757;28;20321;-55
2022/03/13 08:53:28;;;;;;;16.70;11.00;;;10.80;99.90;;;;;;4956969;28;20580;-55
2022/03/13 08:55:55;;;;;;;16.07;11.53;;;10.80;99.90;;;;;;4959655;28;20302;-55
2022/03/13 08:58:22;;;;;;;16.33;10.37;;;10.80;99.90;;;;;;4957690;28;20341;-57
2022/03/13 09:00:50;;;;;;;14.27;10.83;;;10.90;99.90;;;;;;4959229;28;20294;-55
2022/03/13 09:03:18;;;;;;;15.73;10.53;;;11.00;99.90;;;;;;4958483;28;20206;-55
2022/03/13 09:05:47;;;;;;;16.03;11.43;;;11.10;99.90;;;;;;4963759;28;20650;-55
2022/03/13 09:08:14;;;;;;;16.27;11.30;;;11.20;99.90;;;;;;4959922;28;20258;-55
2022/03/13 09:10:41;;;;;;;18.57;11.63;;;11.50;99.90;;;;;;4959940;28;20213;-55
2022/03/13 09:13:08;;;;;;;15.90;11.80;;;11.90;99.90;;;;;;4958472;28;20244;-57
2022/03/13 09:15:37;;;;;;;14.43;10.60;;;12.60;99.90;;;;;;4956682;28;20207;-55
2022/03/13 09:18:05;;;;;;;14.87;10.33;;;12.90;99.90;;;;;;4956357;28;20272;-55
2022/03/13 09:20:32;;;;;;;17.53;11.43;;;13.30;99.90;;;;;;4957015;28;20324;-53
2022/03/13 09:22:58;;;;;;;17.90;10.87;;;13.50;99.90;;;;;;4958290;28;20226;-55
2022/03/13 09:25:25;;;;;;;16.07;11.43;;;13.50;99.90;;;;;;4957798;28;20230;-55
2022/03/13 09:27:52;;;;;;;14.03;10.63;;;13.60;99.90;;;;;;4956404;28;20302;-57
2022/03/13 09:30:19;;;;;;;19.20;11.37;;;13.50;99.90;;;;;;4969669;28;20203;-55
2022/03/13 09:32:46;;;;;;;15.07;10.60;;;13.40;99.90;;;;;;4955911;28;20382;-55
2022/03/13 09:35:13;;;;;;;13.67;10.90;;;13.70;99.90;;;;;;4950005;28;20253;-56
2022/03/13 09:37:40;;;;;;;13.23;10.47;;;14.00;99.90;;;;;;4956123;28;20721;-56
2022/03/13 09:40:15;;;;;;;16.80;11.17;;;14.30;99.90;;;;;;4954426;28;20215;-54
2022/03/13 09:42:42;;;;;;;15.60;11.30;;;13.90;99.90;;;;;;4952061;28;20204;-54
2022/03/13 09:45:11;;;;;;;15.03;10.87;;;13.90;99.90;;;;;;4949484;28;20214;-54
2022/03/13 09:47:38;;;;;;;14.23;10.80;;;14.00;99.90;;;;;;4961961;28;20292;-54
2022/03/13 09:50:07;;;;;;;14.73;11.50;;;14.20;99.90;;;;;;4958491;28;20293;-56
2022/03/13 09:52:36;;;;;;;17.40;10.83;;;14.20;99.90;;;;;;4959040;28;20211;-53
2022/03/13 09:55:03;;;;;;;18.37;12.30;;;13.80;99.90;;;;;;4960953;28;20210;-54
2022/03/13 09:57:30;;;;;;;14.70;11.33;;;14.10;99.90;;;;;;4954575;28;20260;-56
2022/03/13 09:59:56;;;;;;;15.20;11.27;;;14.60;99.90;;;;;;4959616;28;20282;-55
2022/03/13 10:02:34;;;;;;;13.57;10.70;;;14.80;99.90;;;;;;4958193;28;20207;-54
2022/03/13 10:05:09;;;;;;;15.27;11.30;;;15.00;99.90;;;;;;4962052;28;20562;-54
2022/03/13 10:07:54;;;;;;;14.47;10.87;;;15.30;99.90;;;;;;4971363;28;20253;-55
2022/03/13 10:10:23;;;;;;;13.27;10.27;;;15.20;99.90;;;;;;4954629;28;20198;-62
2022/03/13 10:12:50;;;;;;;14.40;10.80;;;15.20;99.90;;;;;;4956204;28;20801;-60
2022/03/13 10:15:17;;;;;;;13.93;9.63;;;15.30;99.90;;;;;;4958903;28;20256;-60
2022/03/13 10:17:45;;;;;;;13.87;10.77;;;15.50;99.90;;;;;;4957939;28;20222;-60
2022/03/13 10:20:25;;;;;;;12.40;9.90;;;15.50;99.90;;;;;;4958865;28;20311;-62
2022/03/13 10:23:01;;;;;;;13.73;10.77;;;15.70;99.90;;;;;;4955338;28;21190;-61
2022/03/13 10:25:36;;;;;;;14.73;10.27;;;15.20;99.90;;;;;;4958617;28;20238;-61
2022/03/13 10:28:26;;;;;;;12.93;9.70;;;15.20;99.90;;;;;;4958719;28;20197;-63
2022/03/13 10:30:59;;;;;;;15.53;10.20;;;15.80;99.90;;;;;;4954093;28;20266;-62
2022/03/13 10:33:46;;;;;;;12.50;9.17;;;15.80;99.90;;;;;;4957190;28;20378;-61
2022/03/13 10:36:19;;;;;;;12.00;9.70;;;15.40;99.90;;;;;;4956851;28;20200;-61
2022/03/13 10:38:49;;;;;;;14.83;9.23;;;15.60;99.90;;;;;;4958091;28;20244;-62
2022/03/13 10:41:17;;;;;;;12.70;9.97;;;15.70;99.90;;;;;;4958198;28;20843;-61
2022/03/13 10:43:52;;;;;;;13.27;9.50;;;15.80;99.90;;;;;;4960424;28;20230;-63
2022/03/13 10:46:31;;;;;;;12.20;10.20;;;16.10;99.90;;;;;;4959043;28;20205;-61
2022/03/13 10:49:00;;;;;;;10.23;8.10;;;16.30;99.90;;;;;;4959522;28;20212;-60
2022/03/13 10:51:44;;;;;;;9.67;8.27;;;15.90;99.90;;;;;;4958569;28;20572;-60
2022/03/13 10:54:30;;;;;;;12.57;9.00;;;16.30;99.90;;;;;;4973040;28;20227;-61
2022/03/13 10:57:10;;;;;;;10.37;8.20;;;16.10;99.90;;;;;;4959234;28;20297;-61
2022/03/13 10:59:40;;;;;;;9.60;7.90;;;16.10;99.90;;;;;;4958341;28;20751;-55
2022/03/13 11:02:15;;;;;;;10.03;8.33;;;16.20;99.90;;;;;;4961251;28;20210;-54
2022/03/13 11:04:50;;;;;;;9.37;7.70;;;16.20;99.90;;;;;;4958375;28;20201;-55
2022/03/13 11:07:19;;;;;;;11.57;8.50;;;16.20;99.90;;;;;;4961404;28;20315;-54
2022/03/13 11:09:46;;;;;;;11.93;8.17;;;16.10;99.90;;;;;;4957105;28;20208;-56
2022/03/13 11:12:19;;;;;;;8.57;7.33;;;15.80;99.90;;;;;;4956616;28;20259;-55
2022/03/13 11:14:56;;;;;;;9.60;7.53;;;15.60;99.90;;;;;;4963142;28;20267;-55
2022/03/13 11:17:26;;;;;;;8.93;7.40;;;15.90;99.90;;;;;;4957669;28;20295;-55
2022/03/13 11:19:58;;;;;;;9.77;8.00;;;16.10;99.90;;;;;;4954500;28;20224;-55
2022/03/13 11:22:26;;;;;;;12.27;8.37;;;16.40;99.90;;;;;;4959581;28;20265;-55
2022/03/13 11:24:56;;;;;;;8.37;6.97;;;16.30;99.90;;;;;;4961990;28;20719;-55
2022/03/13 11:27:27;;;;;;;11.17;8.03;;;16.00;99.90;;;;;;4957510;28;20209;-55
2022/03/13 11:29:55;;;;;;;9.47;8.00;;;16.30;99.90;;;;;;4961535;28;20296;-54
2022/03/13 11:32:40;;;;;;;11.07;8.33;;;16.60;99.90;;;;;;4957908;28;20312;-55
2022/03/13 11:35:16;;;;;;;11.70;8.50;;;16.80;99.90;;;;;;4958820;28;20564;-55
2022/03/13 11:37:45;;;;;;;10.27;8.00;;;16.80;99.90;;;;;;4960807;28;20798;-54
2022/03/13 11:40:15;;;;;;;9.80;8.33;;;16.60;99.90;;;;;;4957671;28;20209;-54
2022/03/13 11:42:54;;;;;;;10.33;8.40;;;16.60;99.90;;;;;;4959031;28;20317;-55
2022/03/13 11:45:30;;;;;;;11.20;8.07;;;16.80;99.90;;;;;;4960031;28;20759;-54
2022/03/13 11:48:20;;;;;;;12.27;8.00;;;17.10;99.90;;;;;;4957981;28;20232;-55
2022/03/13 11:50:47;;;;;;;10.90;8.07;;;17.10;99.90;;;;;;4958001;28;20605;-55
2022/03/13 11:53:40;;;;;;;9.00;7.00;;;17.20;99.90;;;;;;4957263;28;20725;-55
2022/03/13 11:56:28;;;;;;;8.87;7.37;;;17.70;99.90;;;;;;4956415;28;20637;-57
2022/03/13 11:59:12;;;;;;;7.97;7.13;;;17.50;99.90;;;;;;4957487;28;20218;-54
2022/03/13 12:01:39;;;;;;;9.37;7.33;;;17.90;99.90;;;;;;4958091;28;20347;-55
2022/03/13 12:04:14;;;;;;;9.03;7.37;;;17.40;99.90;;;;;;4955285;28;20600;-54
2022/03/13 12:06:56;;;;;;;9.43;7.73;;;17.70;99.90;;;;;;4960139;28;21759;-54
2022/03/13 12:09:30;;;;;;;9.93;7.83;;;17.70;99.90;;;;;;4958796;28;20551;-54
2022/03/13 12:12:04;;;;;;;8.70;6.90;;;17.40;99.90;;;;;;4958733;28;20292;-55
2022/03/13 12:14:54;;;;;;;9.30;7.83;;;17.90;99.90;;;;;;4943461;28;20211;-57
2022/03/13 12:17:27;;;;;;;9.40;7.83;;;17.60;99.90;;;;;;4957275;28;20640;-54
2022/03/13 12:19:56;;;;;;;10.97;8.03;;;17.70;99.90;;;;;;4957385;28;20308;-53
2022/03/13 12:22:24;;;;;;;9.57;8.10;;;18.00;99.90;;;;;;4958605;28;20658;-54
2022/03/13 12:24:57;;;;;;;9.43;7.20;;;17.70;99.90;;;;;;4957703;28;20234;-55
2022/03/13 12:27:25;;;;;;;9.40;7.60;;;17.90;99.90;;;;;;4957168;28;20293;-54
2022/03/13 12:29:56;;;;;;;9.60;7.03;;;17.90;99.90;;;;;;4956229;28;20358;-54
2022/03/13 12:32:34;;;;;;;9.73;7.27;;;18.20;99.90;;;;;;4956797;28;20251;-54
2022/03/13 12:35:03;;;;;;;11.67;8.00;;;18.30;99.90;;;;;;4957462;28;20214;-55
2022/03/13 12:37:30;;;;;;;9.33;7.57;;;18.40;99.90;;;;;;4958488;28;20251;-55
2022/03/13 12:40:00;;;;;;;10.67;8.07;;;18.50;99.90;;;;;;4957757;28;20217;-55
2022/03/13 12:42:30;;;;;;;10.80;7.63;;;18.40;99.90;;;;;;4958874;28;20661;-55
2022/03/13 12:45:09;;;;;;;9.73;8.17;;;18.40;99.90;;;;;;4974288;28;20654;-55
2022/03/13 12:47:46;;;;;;;9.20;6.80;;;18.20;99.90;;;;;;4959340;28;20214;-55
2022/03/13 12:50:15;;;;;;;9.43;7.10;;;18.40;99.90;;;;;;4958301;28;20237;-55